Time;durP1;ratioP1;P1;durP2;ratioP2;P2;SDS_P1;SDS_P2;PMS_P1;PMS_P2;Temp;Humidity;BMP_temperature;BMP_pressure;BME280_temperature;BME280_humidity;BME280_pressure;Samples;Min_cycle;Max_cycle;Signal;HPM_P1;HPM_P2
2022/04/03 00:00:10;;;;;;;12.6;11.3;;;;;;;-0.01;86.66211;934.5158;;;;
2022/04/03 00:02:34;;;;;;;12.5;10.9;;;;;;;0.02;86.76758;934.5069;;;;
2022/04/03 00:04:59;;;;;;;12.9;10.5;;;;;;;0.04;86.89648;934.5422;;;;
2022/04/03 00:07:24;;;;;;;12.4;11.1;;;;;;;0.09;86.70508;934.4952;;;;
2022/04/03 00:09:50;;;;;;;13.5;11.6;;;;;;;0.07;86.71191;934.4787;;;;
2022/04/03 00:12:15;;;;;;;15.5;13.3;;;;;;;0.01;86.52148;934.519;;;;
2022/04/03 00:14:42;;;;;;;13.3;11.9;;;;;;;0.13;86.3125;934.5651;;;;
2022/04/03 00:17:07;;;;;;;13.3;11.3;;;;;;;0.16;86.00684;934.5552;;;;
2022/04/03 00:19:34;;;;;;;13.3;11.4;;;;;;;0.02;86.60059;934.543;;;;
2022/04/03 00:21:59;;;;;;;13.1;11.5;;;;;;;0.03;86.71582;934.5474;;;;
2022/04/03 00:24:25;;;;;;;13.7;12;;;;;;;0.08;86.55859;934.562;;;;
2022/04/03 00:26:50;;;;;;;14.2;11.7;;;;;;;0.12;86.04395;934.5818;;;;
2022/04/03 00:29:18;;;;;;;14.9;13.2;;;;;;;0.14;85.64648;934.5715;;;;
2022/04/03 00:31:43;;;;;;;15.3;13;;;;;;;0.18;85.08496;934.6241;;;;
2022/04/03 00:34:09;;;;;;;14.6;12.5;;;;;;;0.15;84.67871;934.5735;;;;
2022/04/03 00:36:34;;;;;;;15.3;13.2;;;;;;;0.06;85.1748;934.6146;;;;
2022/04/03 00:39:00;;;;;;;13.7;12.1;;;;;;;0.02;85.7334;934.6605;;;;
2022/04/03 00:42:04;;;;;;;14.3;12.3;;;;;;;0.22;84.93652;934.6229;;;;
2022/04/03 00:44:30;;;;;;;15;13.3;;;;;;;0.21;85.07031;934.6703;;;;
2022/04/03 00:46:55;;;;;;;13.6;11.8;;;;;;;0.28;84.69238;934.6818;;;;
2022/04/03 00:49:22;;;;;;;13.7;12.2;;;;;;;0.1;84.80273;934.6789;;;;
2022/04/03 00:51:47;;;;;;;13.1;11.7;;;;;;;0.03;85.35547;934.7014;;;;
2022/04/03 00:54:13;;;;;;;14.1;12.3;;;;;;;0.04;85.9375;934.6785;;;;
2022/04/03 00:56:40;;;;;;;14.4;12.2;;;;;;;0.14;86.03613;934.7039;;;;
2022/04/03 00:59:05;;;;;;;13.2;11.8;;;;;;;-0.08;85.37988;934.7037;;;;
2022/04/03 01:01:30;;;;;;;14.1;12.6;;;;;;;0.01;85.28613;934.653;;;;
2022/04/03 01:03:55;;;;;;;15.6;12.6;;;;;;;0.1;85.46094;934.6718;;;;
2022/04/03 01:06:20;;;;;;;14.2;12.5;;;;;;;0.17;85.54004;934.7434;;;;
2022/04/03 01:08:45;;;;;;;12.9;11.5;;;;;;;0.06;85.5625;934.7459;;;;
2022/04/03 01:11:10;;;;;;;14;12.2;;;;;;;0.08;85.38867;934.7505;;;;
2022/04/03 01:13:35;;;;;;;14;12.3;;;;;;;0.06;85.43066;934.743;;;;
2022/04/03 01:16:01;;;;;;;13.8;11.7;;;;;;;0.03;85.32324;934.747;;;;
2022/04/03 01:18:26;;;;;;;14.3;12.2;;;;;;;0.07;85.01855;934.7823;;;;
2022/04/03 01:20:52;;;;;;;15;13.1;;;;;;;0.09;84.9668;934.7807;;;;
2022/04/03 01:23:28;;;;;;;14.1;11.7;;;;;;;0.14;84.69922;934.8142;;;;
2022/04/03 01:25:53;;;;;;;14.7;12.9;;;;;;;0.16;84.78223;934.7823;;;;
2022/04/03 01:28:19;;;;;;;14.3;12.8;;;;;;;0.08;85.11133;934.8033;;;;
2022/04/03 01:30:45;;;;;;;14.6;13;;;;;;;-0.05;84.44043;934.8155;;;;
2022/04/03 01:33:10;;;;;;;13.7;12.2;;;;;;;-0.09;85.12109;934.8761;;;;
2022/04/03 01:35:36;;;;;;;14.7;12.4;;;;;;;-0.15;85.49707;934.8789;;;;
2022/04/03 01:38:01;;;;;;;14.1;12.2;;;;;;;-0.44;86.22852;934.8796;;;;
2022/04/03 01:40:26;;;;;;;14;12;;;;;;;-0.22;85.78418;934.8576;;;;
2022/04/03 01:42:52;;;;;;;14.8;12.7;;;;;;;-0.18;86.03906;934.867;;;;
2022/04/03 01:45:17;;;;;;;12.9;11.6;;;;;;;-0.25;85.04395;934.8915;;;;
2022/04/03 01:47:42;;;;;;;12.6;11.3;;;;;;;-0.47;85.9668;934.8714;;;;
2022/04/03 01:50:08;;;;;;;13;11.6;;;;;;;-0.55;86.48633;934.8983;;;;
2022/04/03 01:52:35;;;;;;;13;11.6;;;;;;;-0.45;86.26172;934.8981;;;;
2022/04/03 01:55:01;;;;;;;13.5;11.9;;;;;;;-0.56;87.01855;934.8972;;;;
2022/04/03 01:57:27;;;;;;;13.2;11.8;;;;;;;-0.6;87.36426;934.78;;;;
2022/04/03 01:59:52;;;;;;;13.5;11.7;;;;;;;-0.51;87.21875;934.8972;;;;
2022/04/03 02:02:17;;;;;;;13.5;12.1;;;;;;;-0.49;87.00879;934.9026;;;;
2022/04/03 02:04:45;;;;;;;14.4;12.4;;;;;;;-0.61;87.42969;934.9156;;;;
2022/04/03 02:07:10;;;;;;;12.8;11.5;;;;;;;-0.72;87.46289;934.918;;;;
2022/04/03 02:09:35;;;;;;;14.5;12.2;;;;;;;-0.55;87.49609;934.9272;;;;
2022/04/03 02:12:03;;;;;;;13.7;12.1;;;;;;;-0.6;86.98633;934.9438;;;;
2022/04/03 02:14:27;;;;;;;13.1;11.7;;;;;;;-0.54;87.01953;934.9598;;;;
2022/04/03 02:16:52;;;;;;;13.6;11.8;;;;;;;-0.33;86.41895;934.8967;;;;
2022/04/03 02:19:19;;;;;;;13.7;11.5;;;;;;;-0.46;86.46973;934.9603;;;;
2022/04/03 02:21:44;;;;;;;12.6;11;;;;;;;-0.39;86.20605;934.9863;;;;
2022/04/03 02:24:09;;;;;;;15;11.6;;;;;;;-0.35;86.02539;934.9523;;;;
2022/04/03 02:26:34;;;;;;;13.7;11.2;;;;;;;-0.33;85.7627;934.9461;;;;
2022/04/03 02:28:59;;;;;;;13.6;12.1;;;;;;;-0.33;86.04102;934.9774;;;;
2022/04/03 02:31:24;;;;;;;12.7;11.4;;;;;;;-0.16;85.19629;934.9453;;;;
2022/04/03 02:33:49;;;;;;;13.4;11.6;;;;;;;-0.06;84.66992;935.0505;;;;
2022/04/03 02:36:14;;;;;;;12.8;11.4;;;;;;;0.01;84.66211;934.9052;;;;
2022/04/03 02:38:40;;;;;;;13.7;12.1;;;;;;;-0.16;84.26953;935.0233;;;;
2022/04/03 02:41:05;;;;;;;13.2;11.6;;;;;;;-0.08;84.375;935.0769;;;;
2022/04/03 02:43:30;;;;;;;13.3;11.9;;;;;;;-0.04;84.57324;935.0436;;;;
2022/04/03 02:45:57;;;;;;;13.8;11.8;;;;;;;-0.33;84.92773;935.0366;;;;
2022/04/03 02:48:24;;;;;;;14.8;11.7;;;;;;;-0.17;84.79297;935.0628;;;;
2022/04/03 02:50:49;;;;;;;13.6;11.9;;;;;;;-0.19;85.22363;935.084;;;;
2022/04/03 02:53:15;;;;;;;14.6;12.4;;;;;;;-0.38;85.45313;935.1128;;;;
2022/04/03 02:55:41;;;;;;;15.4;13.5;;;;;;;-0.44;86.40625;935.1495;;;;
2022/04/03 02:58:07;;;;;;;14.2;12.7;;;;;;;-0.5;87.22949;935.1495;;;;
2022/04/03 03:00:33;;;;;;;15.6;13.5;;;;;;;-0.6;87.35352;935.1167;;;;
2022/04/03 03:03:00;;;;;;;15.5;13.8;;;;;;;-0.66;87.78516;935.1316;;;;
2022/04/03 03:05:24;;;;;;;17.8;14.8;;;;;;;-0.41;87.30371;935.129;;;;
2022/04/03 03:07:51;;;;;;;16;14.2;;;;;;;-0.42;87.03516;935.1185;;;;
2022/04/03 03:10:16;;;;;;;16.3;13.9;;;;;;;-0.29;86.74902;935.0746;;;;
2022/04/03 03:12:41;;;;;;;16;14.2;;;;;;;-0.22;86.59863;935.0925;;;;
2022/04/03 03:15:06;;;;;;;15.9;14.1;;;;;;;-0.28;86.44141;935.1252;;;;
2022/04/03 03:17:32;;;;;;;15.5;13.3;;;;;;;-0.15;86.34473;935.1428;;;;
2022/04/03 03:19:58;;;;;;;15.2;13.1;;;;;;;-0.17;86.5752;935.1538;;;;
2022/04/03 03:22:25;;;;;;;14.8;13.1;;;;;;;-0.08;86.4248;935.1511;;;;
2022/04/03 03:25:16;;;;;;;15.1;13.5;;;;;;;0.01;86.13281;935.2057;;;;
2022/04/03 03:27:45;;;;;;;14;12.6;;;;;;;0.03;86.07031;935.1297;;;;
2022/04/03 03:30:24;;;;;;;14.5;12.7;;;;;;;0.06;85.78613;935.224;;;;
2022/04/03 03:32:51;;;;;;;15.6;13.5;;;;;;;-0.04;86.54492;935.2251;;;;
2022/04/03 03:35:16;;;;;;;15.7;13.2;;;;;;;-0.01;86.32813;935.2108;;;;
2022/04/03 03:37:44;;;;;;;14.5;13;;;;;;;-0.03;85.74512;935.2159;;;;
2022/04/03 03:40:11;;;;;;;15;12.8;;;;;;;0.04;85.41406;935.1412;;;;
2022/04/03 03:42:33;;;;;;;15.1;13.1;;;;;;;0.15;85.03516;935.2123;;;;
2022/04/03 03:45:38;;;;;;;15.7;13.5;;;;;;;0.04;85.69336;935.2274;;;;
2022/04/03 03:48:03;;;;;;;16.6;14.5;;;;;;;0.05;85.71484;935.2533;;;;
2022/04/03 03:50:28;;;;;;;18.4;15.5;;;;;;;0.03;85.72461;935.2394;;;;
2022/04/03 03:52:53;;;;;;;21.7;17.5;;;;;;;-0.02;85.9043;935.2589;;;;
2022/04/03 03:55:18;;;;;;;17.8;14.6;;;;;;;0.01;85.73242;935.3416;;;;
2022/04/03 03:57:45;;;;;;;18.9;16.2;;;;;;;0.01;85.70801;935.3596;;;;
2022/04/03 04:00:12;;;;;;;19.4;16.3;;;;;;;-0.09;86.03516;935.3513;;;;
2022/04/03 04:02:39;;;;;;;20.8;16.7;;;;;;;-0.07;86.70703;935.4467;;;;
2022/04/03 04:05:04;;;;;;;20.2;17;;;;;;;-0.06;85.92871;935.4473;;;;
2022/04/03 04:07:29;;;;;;;20;16.9;;;;;;;-0.23;86.62695;935.4455;;;;
2022/04/03 04:09:55;;;;;;;19.7;16.9;;;;;;;-0.19;86.74707;935.4506;;;;
2022/04/03 04:12:20;;;;;;;19.4;16.3;;;;;;;-0.2;86.68066;935.4739;;;;
2022/04/03 04:14:48;;;;;;;19.4;16.7;;;;;;;-0.18;86.93848;935.5294;;;;
2022/04/03 04:17:13;;;;;;;22;18.2;;;;;;;-0.27;87.55469;935.5428;;;;
2022/04/03 04:19:39;;;;;;;21.9;18.3;;;;;;;-0.33;88.36719;935.5547;;;;
2022/04/03 04:22:07;;;;;;;24.3;19.7;;;;;;;-0.31;88.26172;935.5564;;;;
2022/04/03 04:24:34;;;;;;;24.4;20.2;;;;;;;-0.36;87.91602;935.4791;;;;
2022/04/03 04:26:59;;;;;;;25.2;20.6;;;;;;;-0.4;88.29785;935.5508;;;;
2022/04/03 04:29:27;;;;;;;25.5;19.6;;;;;;;-0.35;88.20703;935.6116;;;;
2022/04/03 04:31:52;;;;;;;24.6;20;;;;;;;-0.38;88.28906;935.503;;;;
2022/04/03 04:34:19;;;;;;;24.1;19.5;;;;;;;-0.35;88.10742;935.5801;;;;
2022/04/03 04:36:44;;;;;;;25.3;20.2;;;;;;;-0.39;88.33105;935.6364;;;;
2022/04/03 04:39:12;;;;;;;25.8;20.8;;;;;;;-0.4;88.54297;935.6415;;;;
2022/04/03 04:41:37;;;;;;;24.2;19.9;;;;;;;-0.42;88.7041;935.6972;;;;
2022/04/03 04:44:05;;;;;;;25.9;20.6;;;;;;;-0.36;88.47266;935.7184;;;;
2022/04/03 04:46:30;;;;;;;26.9;21.1;;;;;;;-0.4;88.84375;935.7484;;;;
2022/04/03 04:48:55;;;;;;;32.2;24.4;;;;;;;-0.4;89.30859;935.7667;;;;
2022/04/03 04:51:20;;;;;;;29.3;22.7;;;;;;;-0.41;89.77246;935.8069;;;;
2022/04/03 04:53:46;;;;;;;27.6;22.1;;;;;;;-0.4;89.66504;935.777;;;;
2022/04/03 04:56:12;;;;;;;25.8;21;;;;;;;-0.45;89.08789;935.8576;;;;
2022/04/03 04:58:39;;;;;;;26.6;21.7;;;;;;;-0.57;89.87305;935.8419;;;;
2022/04/03 05:01:04;;;;;;;28.4;21.5;;;;;;;-0.52;89.72949;935.8521;;;;
2022/04/03 05:03:29;;;;;;;22.7;18.6;;;;;;;-0.39;89.27734;935.8739;;;;
2022/04/03 05:05:55;;;;;;;20.7;16.7;;;;;;;-0.37;88.92676;935.9056;;;;
2022/04/03 05:08:21;;;;;;;20.4;16.3;;;;;;;-0.33;88.43359;935.8735;;;;
2022/04/03 05:10:46;;;;;;;21.3;18.1;;;;;;;-0.26;87.95703;935.9487;;;;
2022/04/03 05:13:11;;;;;;;25.5;20.3;;;;;;;-0.34;88.46484;935.8951;;;;
2022/04/03 05:15:36;;;;;;;24.4;19.6;;;;;;;-0.4;88.24219;935.9465;;;;
2022/04/03 05:18:03;;;;;;;24.8;20.1;;;;;;;-0.39;88.38672;935.9186;;;;
2022/04/03 05:20:28;;;;;;;24.3;19.6;;;;;;;-0.37;88.17969;935.9687;;;;
2022/04/03 05:22:55;;;;;;;22.7;18.5;;;;;;;-0.38;88.65625;936.0308;;;;
2022/04/03 05:25:20;;;;;;;21.4;18;;;;;;;-0.41;89.25098;936.0145;;;;
2022/04/03 05:27:47;;;;;;;21.5;17.9;;;;;;;-0.39;89.28906;936.0781;;;;
2022/04/03 05:30:12;;;;;;;21.6;17.7;;;;;;;-0.3;88.56152;936.0798;;;;
2022/04/03 05:32:38;;;;;;;19.5;16.2;;;;;;;-0.22;87.80176;936.0845;;;;
2022/04/03 05:35:03;;;;;;;19.6;16.2;;;;;;;-0.19;88.03906;936.1312;;;;
2022/04/03 05:37:30;;;;;;;20.1;16.9;;;;;;;-0.12;87.89844;936.1477;;;;
2022/04/03 05:39:55;;;;;;;19;15.5;;;;;;;-0.19;88.94141;936.1573;;;;
2022/04/03 05:42:21;;;;;;;18.3;15.5;;;;;;;-0.21;88.56055;936.1953;;;;
2022/04/03 05:44:47;;;;;;;16.7;14.3;;;;;;;-0.05;88.08008;936.209;;;;
2022/04/03 05:47:17;;;;;;;16;13.9;;;;;;;0.03;87.89453;936.2698;;;;
2022/04/03 05:49:39;;;;;;;15.9;14.1;;;;;;;0.14;87.47363;936.264;;;;
2022/04/03 05:52:04;;;;;;;16.3;14.3;;;;;;;0.27;87.24316;936.3561;;;;
2022/04/03 05:54:30;;;;;;;15.8;14.1;;;;;;;0.18;86.2666;936.293;;;;
2022/04/03 05:56:55;;;;;;;15.9;13.7;;;;;;;0.32;86.01758;936.366;;;;
2022/04/03 05:59:20;;;;;;;15.8;13.2;;;;;;;0.31;85.72559;936.3964;;;;
2022/04/03 06:01:45;;;;;;;16.9;13.8;;;;;;;0.42;85.94824;936.4227;;;;
2022/04/03 06:04:12;;;;;;;15.9;13.9;;;;;;;0.59;85.29199;936.397;;;;
2022/04/03 06:06:37;;;;;;;14.8;13;;;;;;;0.61;84.9834;936.4327;;;;
2022/04/03 06:09:02;;;;;;;14.7;13.1;;;;;;;0.51;84.54883;936.4397;;;;
2022/04/03 06:11:27;;;;;;;16;14.3;;;;;;;0.6;85.01465;936.467;;;;
2022/04/03 06:13:54;;;;;;;15.6;13.9;;;;;;;0.6;84.30078;936.4358;;;;
2022/04/03 06:16:19;;;;;;;15.2;13.4;;;;;;;0.59;84.43262;936.4683;;;;
2022/04/03 06:18:45;;;;;;;15.7;14;;;;;;;0.76;83.40723;936.4565;;;;
2022/04/03 06:21:10;;;;;;;16;13.8;;;;;;;0.72;83.02051;936.5457;;;;
2022/04/03 06:23:37;;;;;;;15.3;13.6;;;;;;;0.9;82.73047;936.5025;;;;
2022/04/03 06:26:02;;;;;;;17.4;13.6;;;;;;;1.07;81.92578;936.5281;;;;
2022/04/03 06:28:28;;;;;;;16.2;13.9;;;;;;;0.9;82.2627;936.6039;;;;
2022/04/03 06:30:54;;;;;;;16.2;13.7;;;;;;;1.06;82.0918;936.5865;;;;
2022/04/03 06:33:19;;;;;;;15.3;13.2;;;;;;;1.29;82.20313;936.6174;;;;
2022/04/03 06:35:44;;;;;;;14.5;12.6;;;;;;;1.07;82.07129;936.6442;;;;
2022/04/03 06:38:11;;;;;;;13.4;12;;;;;;;1.27;81.08008;936.6572;;;;
2022/04/03 06:40:37;;;;;;;14.5;12.9;;;;;;;1.12;82.21582;936.6541;;;;
2022/04/03 06:43:04;;;;;;;14.9;13.3;;;;;;;1.44;81.57324;936.6936;;;;
2022/04/03 06:45:30;;;;;;;13.6;12.2;;;;;;;1.47;80.25977;936.7576;;;;
2022/04/03 06:47:55;;;;;;;14.2;12.6;;;;;;;1.49;80.26465;936.7703;;;;
2022/04/03 06:50:20;;;;;;;14.8;12.9;;;;;;;1.69;80.38086;936.7714;;;;
2022/04/03 06:52:47;;;;;;;14;12.3;;;;;;;1.72;79.2002;936.7717;;;;
2022/04/03 06:55:42;;;;;;;15.6;13.8;;;;;;;1.77;79.78027;936.7771;;;;
2022/04/03 06:58:08;;;;;;;14.6;12.8;;;;;;;1.57;80.04297;936.753;;;;
2022/04/03 07:00:33;;;;;;;14.8;12.9;;;;;;;1.93;79.80762;936.7723;;;;
2022/04/03 07:03:01;;;;;;;15.4;13.5;;;;;;;2.14;78.55176;936.8163;;;;
2022/04/03 07:05:26;;;;;;;13.8;12.2;;;;;;;2.21;77.91504;936.7015;;;;
2022/04/03 07:07:54;;;;;;;14.5;13;;;;;;;2.37;77.12402;936.8517;;;;
2022/04/03 07:10:19;;;;;;;14.8;12.9;;;;;;;2.39;76.82813;936.8708;;;;
2022/04/03 07:12:44;;;;;;;14.8;13.1;;;;;;;2.52;76.98438;936.8514;;;;
2022/04/03 07:15:12;;;;;;;16;13.5;;;;;;;2.64;75.88477;936.8758;;;;
2022/04/03 07:17:36;;;;;;;17.9;14.9;;;;;;;2.82;75.58008;936.8574;;;;
2022/04/03 07:20:01;;;;;;;16.6;13.8;;;;;;;2.98;74.82422;936.7924;;;;
2022/04/03 07:22:26;;;;;;;15.3;13.5;;;;;;;3.15;74.24805;936.8267;;;;
2022/04/03 07:24:52;;;;;;;18.1;14.8;;;;;;;3.26;73.18945;936.8529;;;;
2022/04/03 07:27:17;;;;;;;14.7;12.9;;;;;;;3.15;73.08105;936.8521;;;;
2022/04/03 07:29:42;;;;;;;15;12.9;;;;;;;2.81;74.55957;936.96;;;;
2022/04/03 07:32:07;;;;;;;13.5;12;;;;;;;3.11;73.44531;936.9781;;;;
2022/04/03 07:34:32;;;;;;;16.3;14.2;;;;;;;2.99;72.77441;936.9445;;;;
2022/04/03 07:36:58;;;;;;;14.2;12.7;;;;;;;3.25;72.89648;936.9509;;;;
2022/04/03 07:39:22;;;;;;;14.5;12.9;;;;;;;3.53;71.58496;936.9064;;;;
2022/04/03 07:41:48;;;;;;;15.1;13.5;;;;;;;3.9;70.7832;936.9624;;;;
2022/04/03 07:44:13;;;;;;;14.5;12.6;;;;;;;4;69.78711;936.9617;;;;
2022/04/03 07:46:38;;;;;;;14.8;13.2;;;;;;;4.36;68.61816;936.9442;;;;
2022/04/03 07:49:03;;;;;;;13.6;12;;;;;;;3.98;69.65918;936.9774;;;;
2022/04/03 07:51:28;;;;;;;14.2;12.7;;;;;;;3.53;71.0791;936.9961;;;;
2022/04/03 07:53:54;;;;;;;14.3;12.8;;;;;;;4.1;69.4873;937.0131;;;;
2022/04/03 07:56:19;;;;;;;14.5;12.7;;;;;;;4.18;69.26465;936.9486;;;;
2022/04/03 07:58:45;;;;;;;14.7;12.7;;;;;;;4.52;68.53223;937.0185;;;;
2022/04/03 08:01:10;;;;;;;14.1;12.1;;;;;;;4.56;67.47949;937.0308;;;;
2022/04/03 08:03:37;;;;;;;14.1;12.6;;;;;;;4.33;68.11719;937.0416;;;;
2022/04/03 08:06:02;;;;;;;14.7;12.8;;;;;;;4.62;68.24414;936.9777;;;;
2022/04/03 08:08:27;;;;;;;14.6;12.6;;;;;;;4.41;68.68457;937.088;;;;
2022/04/03 08:10:52;;;;;;;15.6;13.4;;;;;;;4.68;67.45313;937.0536;;;;
2022/04/03 08:13:20;;;;;;;14.2;12.7;;;;;;;4.12;68.58105;937.1289;;;;
2022/04/03 08:15:45;;;;;;;15;13;;;;;;;4.43;67.57227;937.1295;;;;
2022/04/03 08:18:10;;;;;;;15.5;13.7;;;;;;;3.86;70.12402;937.0792;;;;
2022/04/03 08:20:35;;;;;;;17;13.3;;;;;;;4.38;68.74512;937.0793;;;;
2022/04/03 08:23:03;;;;;;;14.9;12.9;;;;;;;4.63;66.89355;937.1594;;;;
2022/04/03 08:25:27;;;;;;;15.3;12.6;;;;;;;4.34;66.29688;937.1926;;;;
2022/04/03 08:27:54;;;;;;;13.5;12.1;;;;;;;4.58;66.40137;937.2246;;;;
2022/04/03 08:30:19;;;;;;;14;12.1;;;;;;;4.44;65.3457;937.1511;;;;
2022/04/03 08:32:47;;;;;;;13.8;12.3;;;;;;;3.93;67.4707;937.2328;;;;
2022/04/03 08:35:13;;;;;;;14.8;12.3;;;;;;;3.93;66.51465;937.2098;;;;
2022/04/03 08:37:38;;;;;;;14.3;12.3;;;;;;;3.42;68.18848;937.2625;;;;
2022/04/03 08:40:07;;;;;;;14.1;11.8;;;;;;;3.09;69.64941;937.2332;;;;
2022/04/03 08:42:32;;;;;;;14.6;12.3;;;;;;;3.19;70.37402;937.2509;;;;
2022/04/03 08:45:00;;;;;;;14.1;12.5;;;;;;;3.36;69.94043;937.2453;;;;
2022/04/03 08:47:25;;;;;;;13.3;11.9;;;;;;;3.25;69.20313;937.2907;;;;
2022/04/03 08:49:50;;;;;;;15.5;12;;;;;;;3.48;69.24121;937.3591;;;;
2022/04/03 08:52:15;;;;;;;13.1;11.5;;;;;;;3.72;68.59375;937.2467;;;;
2022/04/03 08:54:40;;;;;;;13.3;11.5;;;;;;;3.73;68.02344;937.3542;;;;
2022/04/03 08:57:06;;;;;;;16.1;12;;;;;;;3.97;66.98145;937.4648;;;;
2022/04/03 08:59:35;;;;;;;13.4;11.2;;;;;;;4.01;67.40527;937.4011;;;;
2022/04/03 09:02:00;;;;;;;13.9;11.7;;;;;;;4.55;66.39746;937.3995;;;;
2022/04/03 09:04:27;;;;;;;11.4;10.2;;;;;;;5.24;63.61719;937.367;;;;
2022/04/03 09:06:50;;;;;;;16.9;11.6;;;;;;;5.24;62.88379;937.3236;;;;
2022/04/03 09:09:19;;;;;;;12.5;10.6;;;;;;;5.58;62.06543;937.4341;;;;
2022/04/03 09:11:45;;;;;;;12.2;10.9;;;;;;;5.3;62.52246;937.4359;;;;
2022/04/03 09:14:10;;;;;;;12.4;10.1;;;;;;;4.68;62.44141;937.4628;;;;
2022/04/03 09:16:36;;;;;;;12.2;10.5;;;;;;;4.54;63.36719;937.4322;;;;
2022/04/03 09:19:03;;;;;;;12.8;10.5;;;;;;;4.71;63.56152;937.4409;;;;
2022/04/03 09:21:28;;;;;;;12.4;11;;;;;;;4.48;63.14355;937.302;;;;
2022/04/03 09:23:55;;;;;;;12.2;10.7;;;;;;;4.44;64.5;937.4679;;;;
2022/04/03 09:26:21;;;;;;;12.4;10.3;;;;;;;4.35;63.21484;937.4208;;;;
2022/04/03 09:28:48;;;;;;;10.7;9.3;;;;;;;4.64;61.80469;937.4199;;;;
2022/04/03 09:31:14;;;;;;;12.7;10.4;;;;;;;4.91;62.20508;937.4841;;;;
2022/04/03 09:33:43;;;;;;;12.3;10.5;;;;;;;4.78;64.58594;937.4319;;;;
2022/04/03 09:36:08;;;;;;;12.1;10.5;;;;;;;5.07;62.00293;937.4732;;;;
2022/04/03 09:38:35;;;;;;;11.9;10.5;;;;;;;5.56;61.08203;937.4969;;;;
2022/04/03 09:41:07;;;;;;;10.7;9.6;;;;;;;5.71;59.80273;937.3959;;;;
2022/04/03 09:43:34;;;;;;;11.2;10;;;;;;;5.56;60.21289;937.3769;;;;
2022/04/03 09:46:00;;;;;;;10.7;9.4;;;;;;;5.12;62.04492;937.4069;;;;
2022/04/03 09:48:29;;;;;;;12.1;10;;;;;;;5.54;61.37207;937.4077;;;;
2022/04/03 09:50:54;;;;;;;12.2;10;;;;;;;5.18;59.45898;937.3564;;;;
2022/04/03 09:53:22;;;;;;;12;10;;;;;;;4.77;62.11621;937.392;;;;
2022/04/03 09:55:48;;;;;;;12.9;10.5;;;;;;;4.49;61.58105;937.3323;;;;
2022/04/03 09:58:18;;;;;;;11.1;9.8;;;;;;;4.49;60.59082;937.3268;;;;
2022/04/03 10:00:48;;;;;;;11.1;9.3;;;;;;;4.32;61.89453;937.255;;;;
2022/04/03 10:03:16;;;;;;;10.3;9.1;;;;;;;4.28;60.85352;937.3777;;;;
2022/04/03 10:05:46;;;;;;;9.5;8.5;;;;;;;4.66;59.81445;937.3943;;;;
2022/04/03 10:08:11;;;;;;;9.1;8.2;;;;;;;4.65;57.37012;937.3351;;;;
2022/04/03 10:10:40;;;;;;;10.3;8.8;;;;;;;4.61;56.54102;937.3597;;;;
2022/04/03 10:13:05;;;;;;;10;8;;;;;;;4.35;57.83496;937.3892;;;;
2022/04/03 10:15:40;;;;;;;10.5;8.8;;;;;;;4.57;58.83398;937.3222;;;;
2022/04/03 10:18:07;;;;;;;11;9.6;;;;;;;4.62;59.40332;937.3789;;;;
2022/04/03 10:20:39;;;;;;;11.4;9.7;;;;;;;4.99;58.80176;937.4077;;;;
2022/04/03 10:23:12;;;;;;;11.3;9.7;;;;;;;5.4;56.83887;937.3762;;;;
2022/04/03 10:25:37;;;;;;;12.7;9.7;;;;;;;5.61;57.13672;937.3452;;;;
2022/04/03 10:28:05;;;;;;;11;9.3;;;;;;;5.65;55.5625;937.3803;;;;
2022/04/03 10:30:32;;;;;;;10.5;9.2;;;;;;;5.36;57.4082;937.3214;;;;
2022/04/03 10:32:59;;;;;;;10.9;9.3;;;;;;;5.77;56.79688;937.3762;;;;
2022/04/03 10:35:25;;;;;;;10.8;9.5;;;;;;;5.82;55.75391;937.324;;;;
2022/04/03 10:37:55;;;;;;;10.3;9.2;;;;;;;6.09;56.15039;937.4001;;;;
2022/04/03 10:40:21;;;;;;;13;9.3;;;;;;;5.96;55.18457;937.3936;;;;
2022/04/03 10:42:52;;;;;;;10.7;8.6;;;;;;;5.95;55.72559;937.3752;;;;
2022/04/03 10:45:19;;;;;;;9.9;8.8;;;;;;;6.66;53.4082;937.3733;;;;
2022/04/03 10:47:49;;;;;;;10.9;9.1;;;;;;;6.75;53.81543;937.3889;;;;
2022/04/03 10:50:17;;;;;;;11.7;9.9;;;;;;;6.52;54.83887;937.4253;;;;
2022/04/03 10:52:50;;;;;;;11.5;10;;;;;;;6.39;57.0957;937.3943;;;;
2022/04/03 10:55:19;;;;;;;10.1;9.1;;;;;;;6.53;55.46191;937.3622;;;;
2022/04/03 10:57:47;;;;;;;11.1;9.7;;;;;;;6.28;56.89941;937.3522;;;;
2022/04/03 11:00:17;;;;;;;10.3;8.7;;;;;;;6.21;55.39746;937.33;;;;
2022/04/03 11:02:51;;;;;;;11.5;10.3;;;;;;;5.49;59.48047;937.4334;;;;
2022/04/03 11:05:20;;;;;;;12.8;10.3;;;;;;;5.39;59.9502;937.4547;;;;
2022/04/03 11:07:53;;;;;;;11.4;10.2;;;;;;;5.25;59.43555;937.4835;;;;
2022/04/03 11:10:24;;;;;;;12.9;10.8;;;;;;;5.21;59.9707;937.528;;;;
2022/04/03 11:12:53;;;;;;;12.9;10.9;;;;;;;5.09;62.02832;937.4438;;;;
2022/04/03 11:15:26;;;;;;;13.9;11.7;;;;;;;4.87;63.69824;937.4917;;;;
2022/04/03 11:17:58;;;;;;;14.3;11.6;;;;;;;5.1;61.89551;937.4426;;;;
2022/04/03 11:20:23;;;;;;;11.9;10.6;;;;;;;5.03;64.63574;937.5258;;;;
2022/04/03 11:22:51;;;;;;;13.2;11.4;;;;;;;5.28;62.22656;937.4093;;;;
2022/04/03 11:25:16;;;;;;;12.9;11.2;;;;;;;5.4;62.10645;937.4803;;;;
2022/04/03 11:27:49;;;;;;;12.2;10.5;;;;;;;5.7;60.70605;937.4267;;;;
2022/04/03 11:30:14;;;;;;;13.7;11.8;;;;;;;5.27;62.4502;937.4991;;;;
2022/04/03 11:32:46;;;;;;;16.7;13.2;;;;;;;4.95;66.64063;937.4955;;;;
2022/04/03 11:35:19;;;;;;;15.1;12.2;;;;;;;4.64;66.81836;937.4696;;;;
2022/04/03 11:37:47;;;;;;;13.2;11.3;;;;;;;4.93;62.96289;937.5051;;;;
2022/04/03 11:40:17;;;;;;;14.4;12.3;;;;;;;4.52;64.50098;937.5051;;;;
2022/04/03 11:42:46;;;;;;;14.9;12.3;;;;;;;4.7;62.90723;937.3847;;;;
2022/04/03 11:45:19;;;;;;;14.7;11.7;;;;;;;4.82;64.09766;937.4492;;;;
2022/04/03 11:47:45;;;;;;;14.6;11.9;;;;;;;4.79;64.05762;937.4433;;;;
2022/04/03 11:50:20;;;;;;;12.8;11.5;;;;;;;5.17;62.43457;937.3972;;;;
2022/04/03 11:52:50;;;;;;;13.4;10.8;;;;;;;5.56;60.06641;937.3572;;;;
2022/04/03 11:55:18;;;;;;;14.1;11.6;;;;;;;5.29;61.13379;937.3844;;;;
2022/04/03 11:57:50;;;;;;;14.2;11.4;;;;;;;5.07;61.28125;937.3879;;;;
2022/04/03 12:00:22;;;;;;;13.5;11.6;;;;;;;5.41;61.25098;937.3924;;;;
2022/04/03 12:02:43;;;;;;;13;11.6;;;;;;;5.33;63.2373;937.4076;;;;
2022/04/03 12:05:08;;;;;;;13.9;11.7;;;;;;;5.67;62.6543;937.3215;;;;
2022/04/03 12:07:33;;;;;;;15;11.9;;;;;;;5.74;62.66504;937.3107;;;;
2022/04/03 12:09:58;;;;;;;14.3;12.5;;;;;;;5.38;64.55371;937.3624;;;;
2022/04/03 12:12:25;;;;;;;13.9;12.1;;;;;;;5.44;63.81738;937.2053;;;;
2022/04/03 12:14:50;;;;;;;14.1;12.3;;;;;;;5.47;62.35449;937.3311;;;;
2022/04/03 12:17:21;;;;;;;16.3;12.3;;;;;;;5.62;65.00684;937.3156;;;;
2022/04/03 12:19:47;;;;;;;14.7;12.1;;;;;;;5.67;63.60254;937.2117;;;;
2022/04/03 12:22:12;;;;;;;13.9;12.3;;;;;;;5.6;60.86035;937.313;;;;
2022/04/03 12:24:39;;;;;;;14;11.6;;;;;;;5.19;63.29395;937.2587;;;;
2022/04/03 12:27:04;;;;;;;14.1;11.8;;;;;;;4.71;63.73145;937.3054;;;;
2022/04/03 12:29:29;;;;;;;15.3;12.5;;;;;;;4.67;64.2998;937.2789;;;;
2022/04/03 12:31:59;;;;;;;13.4;11.6;;;;;;;4.64;62.31152;937.1975;;;;
2022/04/03 12:34:24;;;;;;;14;11.9;;;;;;;4.45;63.27441;937.291;;;;
2022/04/03 12:36:49;;;;;;;13.6;11.8;;;;;;;4.58;64.16016;937.3003;;;;
2022/04/03 12:39:14;;;;;;;13.5;11.5;;;;;;;4.64;64.7334;937.1202;;;;
2022/04/03 12:41:40;;;;;;;12.8;11.2;;;;;;;4.3;66.86426;937.2433;;;;
2022/04/03 12:44:06;;;;;;;13.8;11.5;;;;;;;4.31;66.68652;937.1989;;;;
2022/04/03 12:46:31;;;;;;;14.9;12.8;;;;;;;4.22;68.48438;937.2419;;;;
2022/04/03 12:49:00;;;;;;;14.7;12.7;;;;;;;4.46;65.70801;937.2595;;;;
2022/04/03 12:51:25;;;;;;;14.2;12;;;;;;;4.75;64.66113;937.2394;;;;
2022/04/03 12:53:55;;;;;;;13.3;11.6;;;;;;;4.65;66.31152;937.2656;;;;
2022/04/03 12:56:18;;;;;;;14.8;12.9;;;;;;;4.3;67.55078;937.2456;;;;
2022/04/03 12:58:50;;;;;;;15.4;12.7;;;;;;;4.03;67.01465;937.2071;;;;
2022/04/03 13:01:11;;;;;;;15.1;13.2;;;;;;;3.85;66.68262;937.2592;;;;
2022/04/03 13:03:42;;;;;;;14.7;12.8;;;;;;;3.66;68.13477;937.2659;;;;
2022/04/03 13:06:07;;;;;;;16.1;12.7;;;;;;;3.49;70.50098;937.3128;;;;
2022/04/03 13:08:37;;;;;;;14.9;12.8;;;;;;;3.75;67.93848;937.3432;;;;
2022/04/03 13:11:03;;;;;;;13.8;12.3;;;;;;;4.04;67.52148;937.3666;;;;
2022/04/03 13:13:29;;;;;;;15.5;12.6;;;;;;;4.11;66.2959;937.3262;;;;
2022/04/03 13:16:02;;;;;;;16.5;12.6;;;;;;;4.11;67.47656;937.3996;;;;
2022/04/03 13:18:29;;;;;;;15.9;12.7;;;;;;;3.78;67.2334;937.3458;;;;
2022/04/03 13:20:54;;;;;;;15.5;12.6;;;;;;;3.46;68.22754;937.3993;;;;
2022/04/03 13:23:19;;;;;;;14.5;12.2;;;;;;;3.44;68.16699;937.4149;;;;
2022/04/03 13:25:47;;;;;;;13.9;11.9;;;;;;;3.07;68.81445;937.4102;;;;
2022/04/03 13:28:12;;;;;;;15.6;12.4;;;;;;;3.19;68.27539;937.4192;;;;
2022/04/03 13:30:42;;;;;;;14.7;12.2;;;;;;;3.3;67.89844;937.3864;;;;
2022/04/03 13:33:10;;;;;;;14.8;12.4;;;;;;;3.1;69.81934;937.3758;;;;
2022/04/03 13:35:38;;;;;;;15.1;12.2;;;;;;;3.22;68.59277;937.3809;;;;
2022/04/03 13:38:04;;;;;;;15.7;13;;;;;;;3.29;69.95117;937.3616;;;;
2022/04/03 13:40:29;;;;;;;15.9;12.5;;;;;;;3.46;69.01367;937.3513;;;;
2022/04/03 13:42:56;;;;;;;14.2;12.5;;;;;;;3.47;68.47461;937.4041;;;;
2022/04/03 13:45:56;;;;;;;14.9;12.6;;;;;;;3.38;68.37012;937.3078;;;;
2022/04/03 13:47:47;;;;;;;15.1;12.6;;;;;;;3.29;69.85059;937.3741;;;;
2022/04/03 13:50:12;;;;;;;15.7;12.2;;;;;;;3.36;69.37793;937.3748;;;;
2022/04/03 13:52:40;;;;;;;15.3;12.8;;;;;;;3.17;70.52637;937.3711;;;;
2022/04/03 13:55:06;;;;;;;14.7;12.5;;;;;;;3.04;71.18848;937.3531;;;;
2022/04/03 13:57:32;;;;;;;15;12.7;;;;;;;3.15;70.70215;937.4041;;;;
2022/04/03 13:59:59;;;;;;;15.9;12.5;;;;;;;3.04;71.22266;937.3123;;;;
2022/04/03 14:02:26;;;;;;;16;13.4;;;;;;;2.91;72.60352;937.3214;;;;
2022/04/03 14:04:52;;;;;;;15.3;12.8;;;;;;;2.75;72.66504;937.397;;;;
2022/04/03 14:07:17;;;;;;;15.4;13;;;;;;;2.77;72.9707;937.2751;;;;